Latest Weather Observations for Adelaide Airport

IDS60901

Issued at 8:41 am CDT Thursday 22 February 2024 (issued every 10 minutes, with the page automatically refreshed every 10 minutes)

About weather observations | Map of Adelaide area stations | Latest observations for Adelaide area | Other Formats
Station Details ID: 023034 Name: ADELAIDE AIRPORT Lat: -34.95 Lon: 138.52 Height: 2.0 m
Data from the previous 72 hours. | See also: Recent months at Adelaide Airport
Date/Time
CDT
Temp
°C
App
Temp
°C
Dew
Point
°C
Rel
Hum
%
Delta-T
°C
Wind Press
QNH
hPa
Press
MSL
hPa
Rain since
9am
mm
Dir  Spd
km/h
Gust
km/h
Spd
kts
Gust
kts
22/08:30am 24.5 24.7 14.6 54 5.9 NE 7 9 4 5 1007.5 1007.5 0.0
22/08:00am 22.0 23.7 16.1 69 3.6 ENE 2 7 1 4 1007.4 1007.3 0.0
22/07:30am 20.5 21.3 16.3 77 2.5 ENE 7 9 4 5 1007.3 1007.2 0.0
22/07:00am 20.2 20.9 16.0 77 2.5 NE 7 7 4 4 1007.1 1007.0 0.0
22/06:30am 19.6 21.8 16.4 82 1.9 CALM 0 0 0 0 1006.7 1006.6 0.0
22/06:00am 19.7 21.7 16.0 79 2.2 CALM 0 0 0 0 1006.2 1006.1 0.0
22/05:30am 21.1 21.7 16.9 77 2.6 NNW 9 11 5 6 1005.9 1005.8 0.0
22/05:00am 20.5 21.3 17.3 82 2.0 NW 9 9 5 5 1005.5 1005.4 0.0
22/04:30am 21.5 22.4 17.5 78 2.5 NNE 9 11 5 6 1005.4 1005.3 0.0
22/04:00am 20.3 21.4 18.1 87 1.4 ENE 9 13 5 7 1005.5 1005.4 0.0
22/03:30am 20.2 23.1 18.3 89 1.2 CALM 0 7 0 4 1006.0 1005.9 0.0
22/03:00am 21.1 22.5 19.6 91 1.0 W 11 11 6 6 1006.2 1006.1 0.0
22/02:30am 20.8 22.7 18.9 89 1.2 WNW 7 9 4 5 1006.0 1005.9 0.0
22/02:00am 20.5 21.6 18.8 90 1.1 ENE 11 13 6 7 1006.0 1005.9 0.0
22/01:30am 20.5 23.6 18.6 89 1.2 CALM 0 0 0 0 1006.4 1006.3 0.0
22/01:00am 21.8 25.7 20.3 91 1.0 CALM 0 0 0 0 1006.7 1006.6 0.0
22/12:30am 22.0 25.8 20.1 89 1.2 CALM 0 0 0 0 1006.8 1006.7 0.0
22/12:00am 22.4 26.1 19.9 86 1.6 CALM 0 0 0 0 1007.0 1006.9 0.0
 
Date/Time
CDT
Temp
°C
App
Temp
°C
Dew
Point
°C
Rel
Hum
%
Delta-T
°C
Wind Press
QNH
hPa
Press
MSL
hPa
Rain since
9am
mm
Dir  Spd
km/h
Gust
km/h
Spd
kts
Gust
kts
21/11:30pm 23.0 26.8 20.1 84 1.9 CALM 0 6 0 3 1007.5 1007.5 0.0
21/11:00pm 23.6 24.5 19.3 77 2.7 SW 13 17 7 9 1007.7 1007.7 0.0
21/10:30pm 23.7 25.6 19.0 75 3.0 WSW 7 11 4 6 1007.5 1007.5 0.0
21/10:00pm 23.8 27.3 19.5 77 2.8 CALM 0 0 0 0 1007.6 1007.6 0.0
21/09:30pm 24.1 25.6 19.8 77 2.8 SW 11 13 6 7 1007.7 1007.7 0.0
21/09:00pm 24.2 25.5 19.3 74 3.1 SSW 11 15 6 8 1007.4 1007.3 0.0
21/08:30pm 25.0 23.9 17.7 64 4.6 SW 20 24 11 13 1007.3 1007.2 0.0
21/08:00pm 26.3 24.5 13.4 45 7.6 SW 15 19 8 10 1006.9 1006.8 0.0
21/07:30pm 27.8 25.9 14.1 43 8.2 SW 17 20 9 11 1006.6 1006.5 0.0
21/07:00pm 29.0 27.3 13.6 38 9.2 SW 15 17 8 9 1006.4 1006.3 0.0
21/06:30pm 29.6 27.0 12.1 34 10.2 SW 17 24 9 13 1006.3 1006.2 0.0
21/06:00pm 30.3 27.2 10.3 29 11.4 SW 17 22 9 12 1006.2 1006.1 0.0
21/05:30pm 31.6 28.6 12.4 31 11.4 SSW 20 28 11 15 1006.4 1006.3 0.0
21/05:00pm 32.4 29.0 10.4 26 12.7 SSW 19 24 10 13 1006.4 1006.3 0.0
21/04:30pm 33.4 30.8 10.7 25 13.2 SSW 15 22 8 12 1006.5 1006.4 0.0
21/04:00pm 32.9 30.2 9.0 23 13.5 SW 13 28 7 15 1006.7 1006.6 0.0
21/03:30pm 31.4 28.7 9.0 25 12.6 SW 13 26 7 14 1007.0 1006.9 0.0
21/03:00pm 31.0 28.0 9.3 26 12.2 WSW 15 19 8 10 1007.2 1007.1 0.0
21/02:30pm 29.7 26.0 9.3 28 11.4 WSW 19 26 10 14 1007.6 1007.6 0.0
21/02:00pm 30.3 26.2 8.7 26 12.0 WSW 20 26 11 14 1007.7 1007.7 0.0
21/01:30pm 30.6 27.4 10.0 28 11.7 WSW 17 20 9 11 1008.2 1008.2 0.0
21/01:00pm 29.2 25.7 8.8 28 11.3 WSW 17 20 9 11 1008.5 1008.5 0.0
21/12:30pm 29.0 25.9 10.2 31 10.6 WSW 17 19 9 10 1008.8 1008.8 0.0
21/12:00pm 28.7 25.7 10.8 33 10.2 WSW 17 24 9 13 1009.1 1009.1 0.0
21/11:30am 29.1 26.4 12.9 37 9.6 WSW 19 22 10 12 1009.3 1009.3 0.0
21/11:00am 29.2 26.8 11.3 33 10.3 SW 15 19 8 10 1009.4 1009.4 0.0
21/10:30am 28.6 25.7 9.8 31 10.5 SW 15 19 8 10 1009.6 1009.6 0.0
21/10:00am 28.1 25.8 11.6 36 9.5 WSW 15 19 8 10 1009.7 1009.7 0.0
21/09:30am 27.2 25.4 12.0 38 8.8 SW 13 17 7 9 1009.6 1009.6 0.0
21/09:00am 25.5 25.3 16.6 58 5.5 WSW 13 15 7 8 1009.6 1009.6 0.0
21/08:30am 24.7 25.6 16.7 61 4.9 W 7 9 4 5 1009.4 1009.4 0.0
21/08:00am 23.8 25.2 18.7 73 3.2 WSW 9 13 5 7 1009.4 1009.4 0.0
21/07:30am 23.4 23.4 15.2 60 4.9 NW 9 15 5 8 1009.3 1009.3 0.0
21/07:00am 24.8 22.5 7.4 33 9.2 NNE 9 13 5 7 1009.2 1009.2 0.0
21/06:30am 22.4 22.2 10.5 47 6.5 S 2 6 1 3 1008.8 1008.8 0.0
21/06:00am 23.1 22.4 11.5 48 6.5 SSW 6 11 3 6 1008.7 1008.7 0.0
21/05:30am 22.6 21.6 12.3 52 5.9 S 9 13 5 7 1008.6 1008.6 0.0
21/05:00am 23.9 22.4 14.3 55 5.7 SW 15 20 8 11 1008.9 1008.9 0.0
21/04:30am 24.0 22.8 10.3 42 7.6 N 7 11 4 6 1008.8 1008.8 0.0
21/04:00am 27.0 24.1 6.4 27 10.8 NNE 11 19 6 10 1008.7 1008.7 0.0
21/03:30am 27.7 22.6 5.9 25 11.4 NE 22 32 12 17 1008.7 1008.7 0.0
21/03:00am 27.8 23.0 5.4 24 11.6 NNE 20 28 11 15 1008.4 1008.4 0.0
21/02:30am 28.8 22.8 3.6 20 12.7 ENE 24 33 13 18 1008.6 1008.6 0.0
21/02:00am 29.0 22.3 3.8 20 12.8 ENE 28 35 15 19 1008.8 1008.8 0.0
21/01:30am 29.1 22.7 5.2 22 12.4 ENE 28 37 15 20 1008.8 1008.8 0.0
21/01:00am 28.6 22.3 5.5 23 12.0 ENE 28 39 15 21 1009.1 1009.1 0.0
21/12:30am 28.6 22.3 5.5 23 12.0 ENE 28 37 15 20 1009.0 1009.0 0.0
21/12:00am 28.6 21.6 6.1 24 11.8 ENE 32 43 17 23 1009.1 1009.1 0.0
 
Date/Time
CDT
Temp
°C
App
Temp
°C
Dew
Point
°C
Rel
Hum
%
Delta-T
°C
Wind Press
QNH
hPa
Press
MSL
hPa
Rain since
9am
mm
Dir  Spd
km/h
Gust
km/h
Spd
kts
Gust
kts
20/11:30pm 28.4 21.4 5.9 24 11.8 ENE 32 46 17 25 1009.2 1009.2 0.0
20/11:00pm 28.5 21.9 6.0 24 11.8 ENE 30 43 16 23 1009.4 1009.4 0.0
20/10:30pm 28.6 21.4 6.1 24 11.8 ENE 33 41 18 22 1009.3 1009.3 0.0
20/10:00pm 28.8 22.4 6.8 25 11.7 ENE 30 39 16 21 1009.2 1009.2 0.0
20/09:30pm 29.0 22.4 7.6 26 11.6 E 32 43 17 23 1008.8 1008.8 0.0
20/09:00pm 29.4 22.7 7.3 25 11.9 E 32 41 17 22 1008.6 1008.6 0.0
20/08:30pm 29.9 26.0 7.2 24 12.3 ENE 17 28 9 15 1008.6 1008.6 0.0
20/08:00pm 31.0 24.2 6.8 22 13.0 E 32 41 17 22 1008.2 1008.2 0.0
20/07:30pm 31.9 25.3 6.2 20 13.8 E 30 39 16 21 1008.0 1008.0 0.0
20/07:00pm 32.3 25.6 5.7 19 14.2 ENE 30 41 16 22 1008.1 1008.1 0.0
20/06:30pm 32.7 27.2 6.1 19 14.3 ENE 24 33 13 18 1008.2 1008.2 0.0
20/06:00pm 33.2 26.1 5.7 18 14.8 ENE 32 37 17 20 1008.3 1008.3 0.0
20/05:30pm 32.8 25.5 5.4 18 14.6 ENE 33 46 18 25 1008.7 1008.7 0.0
20/05:00pm 32.8 26.1 5.4 18 14.6 ENE 30 39 16 21 1008.7 1008.7 0.0
20/04:30pm 32.8 26.8 6.9 20 14.1 ENE 28 35 15 19 1009.0 1009.0 0.0
20/04:00pm 32.9 27.1 6.2 19 14.4 ENE 26 35 14 19 1009.2 1009.2 0.0
20/03:30pm 32.8 26.6 6.2 19 14.4 E 28 37 15 20 1009.2 1009.2 0.0
20/03:00pm 32.8 27.9 8.3 22 13.7 ENE 24 33 13 18 1009.5 1009.5 0.0
20/02:30pm 33.2 28.2 7.9 21 14.1 E 24 33 13 18 1010.3 1010.3 0.0
20/02:00pm 32.1 28.3 7.7 22 13.4 E 17 24 9 13 1010.5 1010.5 0.0
20/01:30pm 32.0 28.3 9.5 25 12.7 ESE 19 28 10 15 1010.3 1010.3 0.0
20/01:00pm 30.6 26.9 9.5 27 11.9 ESE 19 26 10 14 1010.9 1010.9 0.0
20/12:30pm 29.2 26.4 11.3 33 10.3 SE 17 20 9 11 1011.9 1011.9 0.0
20/12:00pm 28.6 26.4 9.3 30 10.7 S 11 17 6 9 1012.5 1012.5 0.0
20/11:30am 28.2 26.1 9.9 32 10.2 ESE 11 15 6 8 1012.5 1012.5 0.0
20/11:00am 26.5 25.0 11.8 40 8.4 SSE 11 15 6 8 1012.9 1012.9 0.0
20/10:30am 25.3 23.1 14.4 50 6.5 SSW 19 22 10 12 1013.3 1013.3 0.0
20/10:00am 24.6 24.5 16.1 59 5.2 SSW 11 17 6 9 1013.0 1013.0 0.0
20/09:30am 24.8 24.6 14.6 53 6.1 S 9 11 5 6 1012.8 1012.8 0.0
20/09:00am 25.8 24.2 8.8 34 9.2 NNE 7 9 4 5 1012.7 1012.7 0.0
20/08:30am 26.8 23.1 6.2 27 10.7 NE 15 20 8 11 1012.3 1012.3 0.0
20/08:00am 25.6 22.9 7.2 31 9.7 NE 11 15 6 8 1012.1 1012.1 0.0
20/07:30am 21.9 23.7 15.5 67 3.8 CALM 0 0 0 0 1012.1 1012.1 0.0
20/07:00am 21.5 22.4 15.1 67 3.8 SE 4 7 2 4 1011.9 1011.9 0.0
20/06:30am 21.7 22.0 12.3 55 5.3 ESE 2 7 1 4 1011.9 1011.9 0.0
20/06:00am 22.2 22.8 15.3 65 4.1 WSW 6 9 3 5 1011.8 1011.8 0.0
20/05:30am 22.3 22.2 14.9 63 4.4 NW 9 11 5 6 1011.9 1011.9 0.0
20/05:00am 22.5 21.6 13.6 57 5.2 W 11 15 6 8 1012.0 1012.0 0.0
20/04:30am 20.5 19.1 9.7 50 5.8 SE 7 11 4 6 1011.9 1011.9 0.0
20/04:00am 22.7 21.0 8.4 40 7.6 E 7 9 4 5 1011.7 1011.7 0.0
20/03:30am 22.7 21.6 8.4 40 7.6 ENE 4 7 2 4 1011.9 1011.9 0.0
20/03:00am 23.6 22.9 6.8 34 8.7 CALM 0 0 0 0 1012.4 1012.4 0.0
20/02:30am 25.0 22.5 6.7 31 9.5 ESE 9 13 5 7 1012.8 1012.8 0.0
20/02:00am 25.1 22.0 7.3 32 9.4 ESE 13 17 7 9 1013.3 1013.3 0.0
20/01:30am 22.4 20.3 8.1 40 7.5 ESE 9 11 5 6 1013.7 1013.7 0.0
20/01:00am 22.3 19.8 8.4 41 7.3 SE 11 17 6 9 1014.0 1014.0 0.0
20/12:30am 23.9 21.3 7.9 36 8.4 SSE 11 13 6 7 1014.2 1014.2 0.0
20/12:00am 23.8 21.7 8.2 37 8.3 SE 9 13 5 7 1014.5 1014.5 0.0
 
Date/Time
CDT
Temp
°C
App
Temp
°C
Dew
Point
°C
Rel
Hum
%
Delta-T
°C
Wind Press
QNH
hPa
Press
MSL
hPa
Rain since
9am
mm
Dir  Spd
km/h
Gust
km/h
Spd
kts
Gust
kts
19/11:30pm 23.9 21.9 8.7 38 8.1 SSE 9 11 5 6 1014.7 1014.7 0.0
19/11:00pm 24.8 22.7 8.3 35 8.8 SE 9 13 5 7 1015.0 1015.0 0.0
19/10:30pm 25.2 22.8 8.7 35 8.9 SSE 11 17 6 9 1015.0 1015.0 0.0
19/10:00pm 25.8 23.9 9.2 35 9.1 SE 9 11 5 6 1015.0 1015.0 0.0
19/09:30pm 27.4 25.8 8.8 31 10.2 ESE 7 9 4 5 1014.9 1014.9 0.0
19/09:00pm 27.3 25.9 9.6 33 9.8 ESE 7 11 4 6 1014.9 1014.9 0.0
19/08:30pm 28.0 26.3 9.8 32 10.1 ESE 9 15 5 8 1014.7 1014.7 0.0
19/08:00pm 30.1 27.4 9.1 27 11.7 ESE 13 19 7 10 1014.7 1014.7 0.0
19/07:30pm 31.6 27.0 8.0 23 13.0 SE 22 30 12 16 1014.4 1014.4 0.0
19/07:00pm 32.8 29.1 10.2 25 13.0 SE 20 26 11 14 1014.1 1014.1 0.0
19/06:30pm 29.5 29.6 19.2 54 6.7 SSE 17 24 9 13 1014.1 1014.1 0.0
19/06:00pm 27.1 27.1 18.1 58 5.7 SW 15 17 8 9 1014.1 1014.1 0.0
19/05:30pm 26.8 25.2 18.4 60 5.3 SW 24 30 13 16 1014.2 1014.2 0.0
19/05:00pm 25.2 21.5 16.1 57 5.6 SSW 30 35 16 19 1014.5 1014.5 0.0
19/04:30pm 25.9 22.8 17.5 59 5.3 SW 30 35 16 19 1015.0 1015.0 0.0
19/04:00pm 26.6 23.9 15.6 50 6.7 SW 24 32 13 17 1015.5 1015.5 0.0
19/03:30pm 26.3 22.8 14.4 48 7.1 SSW 26 32 14 17 1015.9 1015.9 0.0
19/03:00pm 27.4 24.5 15.1 47 7.5 SW 24 30 13 16 1016.6 1016.6 0.0
19/02:30pm 26.4 23.3 14.5 48 7.1 SSW 24 30 13 16 1017.0 1017.0 0.0
19/02:00pm 26.1 24.1 16.4 55 6.0 SW 22 30 12 16 1017.5 1017.5 0.0
19/01:30pm 26.5 24.1 14.3 47 7.3 SW 20 26 11 14 1017.7 1017.7 0.0
19/01:00pm 26.2 24.7 15.3 51 6.6 SW 17 20 9 11 1018.1 1018.1 0.0
19/12:30pm 26.4 25.2 16.1 53 6.3 WSW 17 20 9 11 1018.4 1018.4 0.0
19/12:00pm 25.3 24.3 15.6 55 5.9 WSW 15 19 8 10 1018.7 1018.7 0.0
19/11:30am 24.8 24.0 16.0 58 5.3 WSW 15 17 8 9 1019.0 1019.0 0.0
19/11:00am 24.7 24.0 15.3 56 5.7 WSW 13 19 7 10 1019.1 1019.1 0.0
19/10:30am 24.8 23.9 14.9 54 5.9 WSW 13 19 7 10 1019.0 1019.0 0.0
19/10:00am 24.8 24.3 14.9 54 5.9 WSW 11 13 6 7 1018.9 1018.9 0.0
19/09:30am 25.0 24.4 14.5 52 6.2 WNW 11 17 6 9 1018.8 1018.8 0.0
19/09:00am 24.0 22.7 13.8 53 6.0 WNW 13 15 7 8 1018.8 1018.8 0.0

Latest Capital City Observations: Canberra | Sydney | Melbourne | Brisbane | Adelaide | Perth | Hobart | Darwin

Other formats

Comma delimited format used in spreadsheet applications
http://www.bom.gov.au/fwo/IDS60901/IDS60901.94672.axf

JavaScript Object Notation format (JSON) in row-major order
http://www.bom.gov.au/fwo/IDS60901/IDS60901.94672.json

Data quality

Most of these data are generated automatically and are frequently updated. Quality checks on data are not normally performed. It is possible for incorrect values to appear. Refer to information at About Latest Weather Observations and please check the disclaimer before using these data.